Time;durP1;ratioP1;P1;durP2;ratioP2;P2;SDS_P1;SDS_P2;PMS_P1;PMS_P2;Temp;Humidity;BMP_temperature;BMP_pressure;BME280_temperature;BME280_humidity;BME280_pressure;Samples;Min_cycle;Max_cycle;Signal;HPM_P1;HPM_P2
2022/03/20 00:00:09;;;;;;;;;5.00;4.50;;;;;8.42;36.71;101827.94;4959355;28;45237;-71
2022/03/20 00:02:35;;;;;;;;;5.50;5.25;;;;;8.41;36.33;101826.19;4957828;28;45678;-69
2022/03/20 00:05:02;;;;;;;;;4.50;4.00;;;;;8.41;36.88;101827.94;4958024;28;45441;-71
2022/03/20 00:07:28;;;;;;;;;6.25;6.00;;;;;8.38;36.23;101814.88;4958002;28;45306;-72
2022/03/20 00:09:53;;;;;;;;;4.00;4.00;;;;;8.34;36.77;101820.16;4957822;28;45336;-72
2022/03/20 00:12:18;;;;;;;;;5.00;4.75;;;;;8.31;36.59;101820.19;4960418;28;45318;-69
2022/03/20 00:14:45;;;;;;;;;6.00;5.00;;;;;8.26;37.13;101821.97;4957116;28;45658;-67
2022/03/20 00:17:10;;;;;;;;;5.00;5.00;;;;;8.20;36.95;101808.94;4957807;28;45280;-72
2022/03/20 00:19:37;;;;;;;;;6.00;4.00;;;;;8.16;36.79;101815.97;4957036;28;45635;-70
2022/03/20 00:22:02;;;;;;;;;7.50;4.00;;;;;8.15;36.67;101808.13;4957833;28;45596;-72
2022/03/20 00:24:27;;;;;;;;;6.75;5.00;;;;;8.13;36.52;101815.13;4957970;28;46177;-73
2022/03/20 00:26:56;;;;;;;;;5.50;4.25;;;;;8.08;37.39;101807.34;4958502;28;45227;-72
2022/03/20 00:29:25;;;;;;;;;7.75;5.00;;;;;8.08;37.21;101814.31;4958993;28;45396;-73
2022/03/20 00:31:50;;;;;;;;;6.25;4.50;;;;;7.97;36.76;101807.44;4958653;28;45383;-72
2022/03/20 00:34:16;;;;;;;;;4.75;4.00;;;;;8.00;37.33;101814.41;4956360;28;45926;-67
2022/03/20 00:36:41;;;;;;;;;5.50;5.00;;;;;7.96;37.14;101812.69;4956941;28;45239;-68
2022/03/20 00:39:06;;;;;;;;;8.00;7.75;;;;;7.86;37.98;101809.28;4955455;28;45315;-71
2022/03/20 00:41:32;;;;;;;;;6.25;4.00;;;;;7.89;38.05;101811.88;4956933;28;45224;-71
2022/03/20 00:44:01;;;;;;;;;6.25;6.25;;;;;7.85;38.28;101815.41;4956807;28;45334;-70
2022/03/20 00:46:27;;;;;;;;;9.75;6.25;;;;;7.80;38.03;101806.72;4957794;28;45536;-66
2022/03/20 00:48:53;;;;;;;;;9.75;5.25;;;;;7.71;38.52;101795.44;4959456;28;45281;-71
2022/03/20 00:51:18;;;;;;;;;7.75;6.00;;;;;7.67;38.82;101798.97;4960629;28;45476;-71
2022/03/20 00:53:44;;;;;;;;;9.50;6.75;;;;;7.62;38.37;101799.88;4961440;28;45169;-68
2022/03/20 00:56:09;;;;;;;;;9.00;4.50;;;;;7.57;39.65;101797.31;4961303;28;45206;-72
2022/03/20 00:58:34;;;;;;;;;9.25;6.75;;;;;7.52;39.06;101802.56;4960932;28;45455;-71
2022/03/20 01:01:00;;;;;;;;;5.50;5.00;;;;;7.42;38.69;101791.31;4960568;28;45504;-73
2022/03/20 01:03:25;;;;;;;;;2.50;1.00;;;;;7.39;39.60;101793.91;4961277;28;46024;-73
2022/03/20 01:05:51;;;;;;;;;9.25;6.25;;;;;7.31;39.60;101796.63;4962963;28;45318;-70
2022/03/20 01:08:18;;;;;;;;;6.00;6.00;;;;;7.23;39.49;101793.19;4963842;28;45167;-72
2022/03/20 01:10:43;;;;;;;;;4.75;4.75;;;;;7.20;40.56;101781.84;4964797;28;45231;-72
2022/03/20 01:13:09;;;;;;;;;5.75;5.00;;;;;7.18;40.98;101791.47;4961400;28;46283;-69
2022/03/20 01:15:34;;;;;;;;;6.00;6.00;;;;;7.13;41.16;101781.03;4962376;28;45399;-72
2022/03/20 01:18:00;;;;;;;;;7.50;6.75;;;;;7.07;41.73;101774.09;4964187;28;45290;-73
2022/03/20 01:20:25;;;;;;;;;4.75;4.00;;;;;7.05;41.30;101782.84;4962924;28;45422;-72
2022/03/20 01:22:50;;;;;;;;;4.50;4.50;;;;;7.00;41.25;101778.50;4959990;28;45316;-73
2022/03/20 01:25:18;;;;;;;;;5.00;5.00;;;;;6.88;41.58;101757.63;4960068;28;45413;-70
2022/03/20 01:27:44;;;;;;;;;5.75;5.50;;;;;6.90;41.29;101766.34;4959703;28;45492;-62
2022/03/20 01:30:09;;;;;;;;;6.75;5.00;;;;;6.83;41.79;101768.13;4959939;28;45292;-67
2022/03/20 01:32:35;;;;;;;;;6.25;4.00;;;;;6.74;41.61;101762.94;4959250;28;45290;-72
2022/03/20 01:35:01;;;;;;;;;4.00;4.00;;;;;6.66;41.39;101756.88;4960247;28;45333;-69
2022/03/20 01:37:26;;;;;;;;;6.50;4.50;;;;;6.69;41.57;101773.41;4959657;28;45419;-64
2022/03/20 01:39:52;;;;;;;;;5.00;4.75;;;;;6.63;41.88;101759.50;4960640;28;45223;-69
2022/03/20 01:42:19;;;;;;;;;7.00;7.00;;;;;6.65;42.41;101770.84;4961232;28;45406;-67
2022/03/20 01:44:46;;;;;;;;;6.50;3.00;;;;;6.58;42.31;101775.22;4961373;28;45377;-69
2022/03/20 01:47:11;;;;;;;;;7.25;7.25;;;;;6.50;42.70;101766.53;4960018;28;45460;-73
2022/03/20 01:49:37;;;;;;;;;5.00;5.00;;;;;6.50;42.79;101761.31;4959799;28;45352;-70
2022/03/20 01:52:10;;;;;;;;;3.75;3.75;;;;;6.43;42.74;101757.84;4959876;28;46316;-68
2022/03/20 01:54:36;;;;;;;;;8.00;5.25;;;;;6.32;43.53;101752.66;4959300;28;45470;-71
2022/03/20 01:57:02;;;;;;;;;5.50;4.25;;;;;6.36;43.37;101750.88;4955035;28;45302;-69
2022/03/20 01:59:27;;;;;;;;;9.00;6.00;;;;;6.35;43.27;101757.00;4939548;28;45551;-69
2022/03/20 02:01:53;;;;;;;;;4.00;4.00;;;;;6.29;42.86;101763.97;4938729;28;45614;-62
2022/03/20 02:04:18;;;;;;;;;7.00;6.00;;;;;6.24;43.41;101752.66;4938771;28;45430;-63
2022/03/20 02:06:44;;;;;;;;;5.00;5.00;;;;;6.21;43.11;101744.84;4938487;28;45406;-64
2022/03/20 02:09:11;;;;;;;;;5.75;4.00;;;;;6.14;43.89;101738.78;4938579;28;45670;-61
2022/03/20 02:11:36;;;;;;;;;6.00;4.50;;;;;6.08;44.15;101733.59;4938111;28;45398;-62
2022/03/20 02:14:02;;;;;;;;;4.75;4.50;;;;;6.10;44.24;101737.06;4937940;28;45415;-64
2022/03/20 02:16:28;;;;;;;;;7.00;4.00;;;;;6.07;43.90;101734.47;4937995;28;45531;-60
2022/03/20 02:18:54;;;;;;;;;7.50;4.25;;;;;6.05;44.30;101730.09;4937639;28;45556;-67
2022/03/20 02:21:56;;;;;;;;;6.00;5.25;;;;;6.02;44.44;101727.50;4969345;28;48354;-59
2022/03/20 02:24:41;;;;;;;;;4.50;4.50;;;;;6.03;44.75;101734.44;4919560;28;45626;-66
2022/03/20 02:27:09;;;;;;;;;3.00;3.00;;;;;5.98;44.55;101724.84;4942499;28;45558;-71
2022/03/20 02:29:35;;;;;;;;;9.50;5.25;;;;;5.98;45.01;101724.84;4944149;28;45364;-60
2022/03/20 02:32:02;;;;;;;;;6.00;5.00;;;;;5.94;45.24;101717.06;4940820;28;45333;-79
2022/03/20 02:34:30;;;;;;;;;9.50;4.00;;;;;5.90;44.85;101721.41;4939169;28;45314;-56
2022/03/20 02:36:57;;;;;;;;;6.00;4.00;;;;;5.68;45.03;101684.00;4939387;28;45207;-64
2022/03/20 02:39:23;;;;;;;;;7.25;5.25;;;;;5.90;45.48;101718.78;4939382;28;45475;-74
2022/03/20 02:41:50;;;;;;;;;5.25;5.25;;;;;5.86;45.83;101711.84;4939099;28;46276;-62
2022/03/20 02:44:18;;;;;;;;;6.00;4.00;;;;;5.83;45.26;101707.50;4939576;28;45351;-59
2022/03/20 02:46:43;;;;;;;;;5.00;5.00;;;;;5.80;45.34;101701.41;4948710;28;45415;-63
2022/03/20 02:49:11;;;;;;;;;3.00;2.00;;;;;5.77;45.97;101710.09;4951339;28;46182;-63
2022/03/20 02:51:36;;;;;;;;;8.00;5.00;;;;;5.77;46.54;101706.63;4941961;28;46037;-71
2022/03/20 02:54:03;;;;;;;;;12.25;9.25;;;;;5.73;46.74;101704.91;4942934;28;45191;-68
2022/03/20 02:56:29;;;;;;;;;8.50;8.00;;;;;5.65;46.75;101699.69;4947700;28;45622;-70
2022/03/20 02:58:55;;;;;;;;;11.75;10.00;;;;;5.62;46.80;101692.75;4960048;28;45305;-61
2022/03/20 03:01:21;;;;;;;;;15.00;11.00;;;;;5.60;47.68;101699.69;4959729;28;46297;-66
2022/03/20 03:03:46;;;;;;;;;9.75;9.00;;;;;5.55;47.39;101699.69;4957607;28;45462;-69
2022/03/20 03:06:13;;;;;;;;;8.50;7.25;;;;;5.55;47.49;101696.22;4956285;28;45497;-70
2022/03/20 03:11:22;;;;;;;;;6.25;6.25;;;;;5.45;48.21;101691.91;4958791;28;45266;-68
2022/03/20 03:13:47;;;;;;;;;5.00;5.00;;;;;5.41;47.80;101678.84;4953378;28;45290;-69
2022/03/20 03:16:15;;;;;;;;;8.00;4.75;;;;;5.40;48.43;101682.34;4943144;28;45298;-70
2022/03/20 03:18:47;;;;;;;;;6.00;5.50;;;;;5.35;49.88;101681.47;4965160;28;45421;-69
2022/03/20 03:21:15;;;;;;;;;4.75;4.75;;;;;5.28;48.86;101678.84;4938446;28;46975;-69
2022/03/20 03:23:41;;;;;;;;;5.75;5.75;;;;;5.25;49.68;101682.31;4938068;28;45220;-70
2022/03/20 03:26:07;;;;;;;;;6.50;6.50;;;;;5.21;49.21;101676.25;4940264;28;45468;-67
2022/03/20 03:28:36;;;;;;;;;6.00;6.00;;;;;5.20;49.78;101678.84;4956719;28;45222;-68
2022/03/20 03:31:04;;;;;;;;;6.00;5.75;;;;;5.11;49.57;101669.28;4956422;28;46936;-67
2022/03/20 03:33:31;;;;;;;;;5.00;4.00;;;;;5.14;49.38;101664.06;4948026;28;45195;-69
2022/03/20 03:35:57;;;;;;;;;4.75;4.75;;;;;5.13;50.15;101672.78;4937959;28;45520;-59
2022/03/20 03:38:30;;;;;;;;;5.00;5.00;;;;;5.09;50.64;101669.28;4955072;28;45617;-51
2022/03/20 03:40:57;;;;;;;;;6.25;5.00;;;;;4.73;51.06;101615.38;4936721;28;45528;-54
2022/03/20 03:43:23;;;;;;;;;5.50;5.00;;;;;5.02;50.40;101677.13;4943717;28;45323;-62
2022/03/20 03:45:49;;;;;;;;;5.75;5.75;;;;;4.77;50.78;101635.34;4947769;28;45480;-54
2022/03/20 03:48:16;;;;;;;;;4.25;4.25;;;;;4.97;51.18;101677.09;4955813;28;45267;-63
2022/03/20 03:50:44;;;;;;;;;8.50;5.00;;;;;4.98;50.56;101684.03;4956403;28;46320;-54
2022/03/20 03:53:10;;;;;;;;;9.50;7.75;;;;;4.96;50.57;101678.84;4954000;28;45243;-59
2022/03/20 03:55:36;;;;;;;;;9.00;7.00;;;;;4.91;50.39;101666.66;4956136;28;45218;-63
2022/03/20 03:58:03;;;;;;;;;6.50;6.50;;;;;4.97;50.77;101675.38;4955336;28;45187;-66
2022/03/20 04:00:32;;;;;;;;;12.00;7.75;;;;;4.96;51.22;101673.63;4956245;28;46349;-69
2022/03/20 04:02:58;;;;;;;;;9.75;7.00;;;;;4.95;51.27;101673.63;4954702;28;45422;-70
2022/03/20 04:05:24;;;;;;;;;7.00;7.00;;;;;4.94;51.25;101667.53;4943295;28;45503;-56
2022/03/20 04:07:50;;;;;;;;;7.00;5.75;;;;;4.93;51.12;101662.31;4956348;28;45529;-70
2022/03/20 04:10:17;;;;;;;;;13.25;7.25;;;;;4.94;51.55;101661.44;4955181;28;45285;-69
2022/03/20 04:12:43;;;;;;;;;6.00;5.00;;;;;4.94;51.37;101659.72;4955496;28;45414;-72
2022/03/20 04:15:10;;;;;;;;;7.50;5.75;;;;;4.96;51.57;101654.50;4939680;28;45782;-71
2022/03/20 04:17:37;;;;;;;;;10.75;8.00;;;;;4.96;51.80;101671.03;4949775;28;45560;-67
2022/03/20 04:20:04;;;;;;;;;10.75;8.00;;;;;4.93;52.04;101670.13;4956657;28;46330;-69
2022/03/20 04:22:30;;;;;;;;;7.25;6.00;;;;;4.95;51.43;101676.22;4959599;28;45324;-71
2022/03/20 04:24:56;;;;;;;;;9.00;6.00;;;;;4.97;51.46;101677.09;4941059;28;45529;-69
2022/03/20 04:27:22;;;;;;;;;6.00;6.00;;;;;4.93;51.56;101660.59;4942513;28;45207;-68
2022/03/20 04:29:48;;;;;;;;;7.75;7.75;;;;;4.99;51.79;101674.50;4941262;28;45320;-70
2022/03/20 04:32:13;;;;;;;;;5.00;3.00;;;;;4.94;52.41;101670.16;4941760;28;45326;-71
2022/03/20 04:34:40;;;;;;;;;7.50;7.00;;;;;4.96;51.67;101678.84;4957955;28;45516;-71
2022/03/20 04:37:07;;;;;;;;;11.25;8.25;;;;;4.88;51.99;101657.13;4952896;28;45559;-70
2022/03/20 04:39:34;;;;;;;;;12.00;9.50;;;;;4.99;51.87;101672.75;4959031;28;46315;-66
2022/03/20 04:42:00;;;;;;;;;11.25;9.00;;;;;4.97;52.10;101671.88;4939699;28;45359;-68
2022/03/20 04:44:26;;;;;;;;;8.00;8.00;;;;;4.95;52.17;101666.69;4955938;28;45347;-61
2022/03/20 04:46:55;;;;;;;;;10.25;9.00;;;;;4.95;52.67;101671.00;4958664;28;45681;-62
2022/03/20 05:00:37;;;;;;;;;9.50;9.50;;;;;4.75;52.75;101656.22;4901636;28;45489;-71
2022/03/20 05:03:03;;;;;;;;;10.00;9.00;;;;;4.72;53.34;101653.59;4929670;28;45234;-67
2022/03/20 05:05:29;;;;;;;;;13.50;8.50;;;;;4.66;53.22;101649.25;4959105;28;45313;-65
2022/03/20 05:07:54;;;;;;;;;11.50;8.00;;;;;4.70;53.31;101662.28;4968243;28;45299;-67
2022/03/20 05:13:22;;;;;;;;;8.25;8.00;;;;;4.64;53.42;101671.81;4946030;28;45427;-68
2022/03/20 05:15:47;;;;;;;;;11.75;8.00;;;;;4.58;54.15;101661.38;4960933;28;45366;-67
2022/03/20 05:18:14;;;;;;;;;9.75;9.25;;;;;4.55;53.63;101657.94;4954127;28;45211;-67
2022/03/20 05:20:40;;;;;;;;;6.75;6.75;;;;;4.52;53.62;101653.56;4961077;28;45661;-69
2022/03/20 05:23:05;;;;;;;;;9.25;7.50;;;;;4.50;54.71;101650.97;4956993;28;45345;-63
2022/03/20 05:25:31;;;;;;;;;12.75;9.00;;;;;4.49;53.64;101666.59;4945265;28;45456;-68
2022/03/20 05:27:57;;;;;;;;;9.50;9.00;;;;;4.42;54.47;101663.09;4951588;28;45413;-67
2022/03/20 05:30:23;;;;;;;;;12.00;9.50;;;;;4.42;54.76;101668.31;4962378;28;47822;-70
2022/03/20 05:32:50;;;;;;;;;10.25;7.75;;;;;4.39;55.16;101657.88;4961223;28;45501;-66
2022/03/20 05:35:16;;;;;;;;;12.75;9.75;;;;;4.36;54.93;101660.47;4962707;28;45493;-69
2022/03/20 05:37:42;;;;;;;;;11.75;8.75;;;;;4.33;55.46;101652.66;4958090;28;45253;-68
2022/03/20 05:40:08;;;;;;;;;13.00;9.25;;;;;4.32;55.38;101648.31;4939228;28;46270;-70
2022/03/20 05:42:34;;;;;;;;;11.25;9.25;;;;;4.30;55.44;101653.50;4973842;28;45337;-63
2022/03/20 05:45:02;;;;;;;;;13.50;8.00;;;;;4.31;55.06;101646.56;4962097;28;45592;-62
2022/03/20 05:47:31;;;;;;;;;10.00;10.00;;;;;4.29;55.43;101651.78;4951277;28;45369;-66
2022/03/20 05:49:57;;;;;;;;;12.50;11.50;;;;;4.29;54.94;101649.16;4962887;28;46059;-68
2022/03/20 05:52:22;;;;;;;;;15.50;12.25;;;;;4.29;55.63;101651.78;4963987;28;45207;-62
2022/03/20 05:54:48;;;;;;;;;9.25;9.25;;;;;4.26;55.57;101649.16;4962458;28;45382;-67
2022/03/20 05:59:57;;;;;;;;;12.00;11.75;;;;;4.18;55.55;101638.69;4960244;28;45769;-69
2022/03/20 06:02:22;;;;;;;;;9.00;7.75;;;;;4.21;55.31;101656.94;4961330;28;45275;-69
2022/03/20 06:04:48;;;;;;;;;13.25;10.00;;;;;4.21;55.60;101649.13;4956053;28;45528;-67
2022/03/20 06:07:13;;;;;;;;;11.25;8.50;;;;;4.22;55.73;101650.00;4958450;28;45242;-62
2022/03/20 06:09:40;;;;;;;;;17.25;13.00;;;;;4.20;56.07;101647.38;4938478;28;45196;-63
2022/03/20 06:12:07;;;;;;;;;11.75;11.25;;;;;4.19;55.85;101645.66;4939133;28;45429;-68
2022/03/20 06:14:34;;;;;;;;;16.00;12.25;;;;;4.22;55.80;101655.22;4956081;28;45333;-65
2022/03/20 06:17:00;;;;;;;;;15.25;10.75;;;;;4.22;56.85;101656.06;4958062;28;45605;-53
2022/03/20 06:19:25;;;;;;;;;13.00;11.50;;;;;4.18;56.81;101649.13;4939764;28;50522;-61
2022/03/20 06:21:51;;;;;;;;;15.00;11.75;;;;;4.20;56.70;101651.75;4940212;28;45309;-69
2022/03/20 06:24:16;;;;;;;;;11.25;11.25;;;;;4.20;57.29;101654.34;4941109;28;45385;-58
2022/03/20 06:26:41;;;;;;;;;17.50;14.50;;;;;4.16;56.84;101650.84;4940536;28;45491;-60
2022/03/20 06:29:07;;;;;;;;;11.50;11.50;;;;;4.21;56.17;101659.53;4956379;28;46923;-66
2022/03/20 06:31:33;;;;;;;;;13.25;12.50;;;;;4.24;56.51;101670.00;4956396;28;45280;-53
2022/03/20 06:33:59;;;;;;;;;14.75;13.00;;;;;4.25;56.85;101665.66;4960509;28;45352;-53
2022/03/20 06:36:25;;;;;;;;;15.50;15.50;;;;;4.31;56.86;101670.03;4938577;28;45549;-51
2022/03/20 06:38:51;;;;;;;;;17.25;13.50;;;;;4.32;56.18;101676.97;4952956;28;45305;-54
2022/03/20 06:41:20;;;;;;;;;13.50;12.25;;;;;4.36;56.40;101674.38;4956882;28;45268;-62
2022/03/20 06:43:45;;;;;;;;;15.25;13.25;;;;;4.37;56.44;101675.25;4955507;28;45500;-62
2022/03/20 06:46:11;;;;;;;;;11.50;11.00;;;;;4.39;56.36;101670.91;4957340;28;45545;-67
2022/03/20 06:48:36;;;;;;;;;14.00;10.50;;;;;4.42;55.95;101677.84;4955997;28;46074;-64
2022/03/20 06:51:04;;;;;;;;;18.50;10.00;;;;;4.41;55.67;101674.41;4956944;28;45381;-65
2022/03/20 06:53:29;;;;;;;;;13.00;12.50;;;;;4.44;55.96;101684.81;4955749;28;45569;-69
2022/03/20 06:55:54;;;;;;;;;11.50;10.75;;;;;4.46;56.13;101675.28;4938862;28;45231;-60
2022/03/20 06:58:21;;;;;;;;;20.75;16.25;;;;;4.47;56.42;101684.84;4948671;28;45337;-63
2022/03/20 07:00:46;;;;;;;;;14.75;13.75;;;;;4.48;56.08;101688.28;4957955;28;45434;-63
2022/03/20 07:03:12;;;;;;;;;15.75;13.00;;;;;4.46;56.10;101696.13;4956338;28;45485;-68
2022/03/20 07:05:37;;;;;;;;;14.75;14.75;;;;;4.48;55.59;101694.38;4959063;28;45406;-68
2022/03/20 07:08:05;;;;;;;;;20.75;15.25;;;;;4.51;55.65;101696.13;4949255;28;46021;-62
2022/03/20 07:10:31;;;;;;;;;17.75;16.00;;;;;4.53;55.92;101708.31;4939127;28;45274;-68
2022/03/20 07:15:43;;;;;;;;;21.00;14.25;;;;;4.56;55.95;101696.16;4937337;28;45266;-68
2022/03/20 07:18:14;;;;;;;;;16.75;16.25;;;;;4.59;55.99;101698.75;4967435;28;45956;-66
2022/03/20 07:20:42;;;;;;;;;18.50;17.50;;;;;4.57;56.07;101697.88;4937024;28;45246;-62
2022/03/20 07:23:09;;;;;;;;;18.50;15.75;;;;;4.56;55.64;101691.78;4961422;28;45341;-62
2022/03/20 07:31:19;;;;;;;;;14.75;14.50;;;;;4.67;55.79;101695.28;4918366;28;45306;-63
2022/03/20 07:33:47;;;;;;;;;30.75;26.75;;;;;4.73;55.79;101707.47;4935136;28;45254;-67
2022/03/20 07:36:13;;;;;;;;;20.50;18.00;;;;;4.79;55.22;101710.09;4958691;28;45382;-63
2022/03/20 07:38:38;;;;;;;;;22.50;18.75;;;;;4.79;55.29;101706.63;4957401;28;45384;-63
2022/03/20 07:41:04;;;;;;;;;25.50;20.50;;;;;4.83;55.36;101711.00;4957179;28;45278;-62
2022/03/20 07:43:29;;;;;;;;;20.50;18.00;;;;;4.85;55.52;101697.94;4941623;28;45442;-66
2022/03/20 07:45:57;;;;;;;;;18.50;15.75;;;;;4.85;55.31;101713.59;4937062;28;45275;-64
2022/03/20 07:48:23;;;;;;;;;25.75;21.50;;;;;4.82;55.27;101697.06;4946388;28;46071;-59
2022/03/20 07:50:50;;;;;;;;;24.75;23.50;;;;;4.90;55.27;101714.47;4955860;28;45318;-65
2022/03/20 07:53:17;;;;;;;;;23.00;21.00;;;;;4.92;55.31;101713.63;4947735;28;45525;-64
2022/03/20 07:55:43;;;;;;;;;26.25;23.75;;;;;4.96;55.51;101714.47;4950797;28;45571;-65
2022/03/20 07:58:09;;;;;;;;;28.75;23.50;;;;;4.89;54.95;101691.88;4955040;28;46195;-65
2022/03/20 08:00:38;;;;;;;;;25.25;21.25;;;;;4.96;55.21;101707.53;4955537;28;45394;-66
2022/03/20 08:03:05;;;;;;;;;25.00;21.00;;;;;4.99;55.47;101704.03;4957414;28;45511;-65
2022/03/20 08:05:30;;;;;;;;;24.25;21.00;;;;;5.02;55.71;101696.22;4958373;28;45349;-64
2022/03/20 08:07:56;;;;;;;;;30.75;18.50;;;;;5.20;55.62;101708.41;4953909;28;45472;-65
2022/03/20 08:10:22;;;;;;;;;24.75;21.00;;;;;5.35;55.65;101707.56;4955136;28;45552;-63
2022/03/20 08:12:48;;;;;;;;;26.00;23.75;;;;;5.46;55.01;101707.53;4939586;28;45447;-66
2022/03/20 08:15:15;;;;;;;;;32.50;26.50;;;;;5.51;55.68;101697.97;4936713;28;45531;-63
2022/03/20 08:17:45;;;;;;;;;26.25;23.25;;;;;5.66;54.63;101704.03;4939367;28;46926;-67
2022/03/20 08:20:12;;;;;;;;;26.00;25.25;;;;;5.70;54.93;101696.19;4938263;28;45474;-60
2022/03/20 08:22:37;;;;;;;;;30.75;26.50;;;;;5.80;54.38;101697.03;4936724;28;45292;-64
2022/03/20 08:25:04;;;;;;;;;26.00;23.50;;;;;5.92;54.64;101708.34;4937874;28;45295;-64
2022/03/20 08:27:29;;;;;;;;;30.75;27.75;;;;;6.02;54.35;101709.22;4938182;28;46242;-65
2022/03/20 08:29:58;;;;;;;;;33.75;29.50;;;;;6.04;54.24;101697.91;4936704;28;45439;-64
2022/03/20 08:32:25;;;;;;;;;31.50;24.50;;;;;6.20;53.87;101705.69;4936643;28;45448;-66
2022/03/20 08:34:52;;;;;;;;;40.75;32.50;;;;;6.19;53.78;101694.34;4936809;28;45278;-66
2022/03/20 08:37:18;;;;;;;;;28.75;26.25;;;;;6.28;53.17;101709.97;4937640;28;45573;-66
2022/03/20 08:39:43;;;;;;;;;37.25;32.00;;;;;6.29;53.13;101706.50;4937173;28;45366;-67
2022/03/20 08:42:08;;;;;;;;;35.00;31.25;;;;;6.36;52.94;101706.47;4942066;28;45794;-66
2022/03/20 08:44:34;;;;;;;;;36.50;31.50;;;;;6.38;53.65;101709.97;4957336;28;45295;-64
2022/03/20 08:47:00;;;;;;;;;33.75;29.25;;;;;6.46;52.95;101712.53;4954864;28;45445;-66
2022/03/20 08:49:25;;;;;;;;;56.00;40.75;;;;;6.57;53.18;101710.72;4971961;28;45297;-64
2022/03/20 08:51:51;;;;;;;;;38.75;31.50;;;;;6.67;52.35;101711.56;4954528;28;45495;-66
2022/03/20 08:54:16;;;;;;;;;36.25;30.00;;;;;6.72;52.77;101720.25;4956328;28;45499;-68
2022/03/20 08:56:42;;;;;;;;;38.50;32.75;;;;;6.76;53.22;101711.50;4950509;28;53071;-65
2022/03/20 08:59:07;;;;;;;;;33.00;28.25;;;;;6.84;52.37;101724.50;4936968;28;45387;-66
2022/03/20 09:01:33;;;;;;;;;36.75;33.00;;;;;6.92;52.02;101727.09;4958621;28;45534;-64
2022/03/20 09:03:58;;;;;;;;;39.00;31.25;;;;;6.99;52.09;101723.56;4956104;28;45514;-63
2022/03/20 09:06:24;;;;;;;;;33.00;28.75;;;;;7.12;52.15;101719.13;4953361;28;46841;-65
2022/03/20 09:08:51;;;;;;;;;36.25;31.00;;;;;7.22;52.69;101720.78;4958347;28;45317;-59
2022/03/20 09:11:18;;;;;;;;;40.00;31.50;;;;;7.34;52.64;101719.78;4957130;28;45254;-57
2022/03/20 09:13:43;;;;;;;;;34.25;30.00;;;;;7.43;51.53;101724.09;4957334;28;45525;-59
2022/03/20 09:18:59;;;;;;;;;36.75;33.25;;;;;7.69;51.58;101726.50;4956254;28;45433;-53
2022/03/20 09:21:30;;;;;;;;;38.50;33.00;;;;;7.83;50.86;101728.94;4958185;28;45269;-53
2022/03/20 09:23:56;;;;;;;;;40.00;33.25;;;;;7.96;51.23;101732.31;4956857;28;45615;-56
2022/03/20 09:26:21;;;;;;;;;39.00;32.75;;;;;8.08;51.32;101736.56;4957095;28;45338;-61
2022/03/20 09:28:47;;;;;;;;;29.50;27.00;;;;;8.22;50.39;101733.78;4953597;28;45358;-64
2022/03/20 09:31:13;;;;;;;;;38.00;33.00;;;;;8.26;49.80;101722.38;4950172;28;45386;-68
2022/03/20 09:33:42;;;;;;;;;40.25;32.50;;;;;8.45;49.26;101728.25;4942229;28;45300;-66
2022/03/20 09:36:08;;;;;;;;;38.00;30.50;;;;;8.57;49.33;101731.63;4940780;28;46191;-67
2022/03/20 09:38:34;;;;;;;;;35.50;31.00;;;;;8.70;49.31;101737.59;4940534;28;45282;-59
2022/03/20 09:41:09;;;;;;;;;42.75;34.25;;;;;8.80;48.98;101728.72;4940819;28;45433;-63
2022/03/20 09:43:45;;;;;;;;;36.25;33.00;;;;;8.93;48.59;101728.53;4941680;28;45310;-58
2022/03/20 09:46:11;;;;;;;;;40.25;35.75;;;;;9.05;48.16;101728.34;4962788;28;45447;-54
2022/03/20 09:48:36;;;;;;;;;37.00;32.75;;;;;9.12;47.62;101723.88;4962880;28;45442;-67
2022/03/20 09:51:04;;;;;;;;;40.50;34.00;;;;;9.20;48.05;101722.00;4958560;28;45544;-58
2022/03/20 09:53:29;;;;;;;;;44.00;34.75;;;;;9.32;47.88;101715.66;4959427;28;45263;-61
2022/03/20 09:55:55;;;;;;;;;38.00;32.00;;;;;9.41;47.41;101712.03;4956596;28;45428;-64
2022/03/20 09:58:26;;;;;;;;;44.25;33.50;;;;;9.56;47.35;101719.63;4943384;28;45730;-65
2022/03/20 10:00:52;;;;;;;;;42.25;33.00;;;;;9.64;46.85;101709.84;4939217;28;45391;-61
2022/03/20 10:03:20;;;;;;;;;42.50;32.25;;;;;9.74;46.46;101710.56;4939158;28;45544;-68
2022/03/20 10:06:16;;;;;;;;;36.25;31.75;;;;;9.82;45.96;101720.91;4940032;28;45243;-68
2022/03/20 10:08:56;;;;;;;;;45.00;34.50;;;;;9.82;45.73;101720.91;4940932;28;45353;-73
2022/03/20 10:11:22;;;;;;;;;44.50;33.00;;;;;9.85;46.25;101722.63;4938309;28;45380;-67
2022/03/20 10:14:10;;;;;;;;;40.25;32.00;;;;;9.87;46.03;101726.94;4939631;28;45592;-66
2022/03/20 10:16:58;;;;;;;;;34.75;30.00;;;;;9.97;45.70;101725.03;4939170;28;46370;-72
2022/03/20 10:19:23;;;;;;;;;40.50;34.75;;;;;10.08;44.65;101724.81;4934220;28;45180;-66
2022/03/20 10:22:09;;;;;;;;;34.25;30.50;;;;;10.18;44.87;101722.88;4937742;28;45258;-68
2022/03/20 10:24:37;;;;;;;;;43.50;34.00;;;;;10.22;44.70;101703.50;4939080;28;45152;-71
2022/03/20 10:27:04;;;;;;;;;43.00;31.50;;;;;10.42;43.90;101723.28;4957394;28;45480;-71
2022/03/20 10:29:34;;;;;;;;;36.75;31.00;;;;;10.55;43.87;101726.53;4942380;28;45401;-71
2022/03/20 10:32:05;;;;;;;;;31.00;27.00;;;;;10.66;42.60;101719.25;4951754;28;45499;-63
2022/03/20 10:35:05;;;;;;;;;27.50;26.50;;;;;10.69;40.71;101720.97;4955925;28;45432;-69
2022/03/20 10:37:47;;;;;;;;;27.00;23.75;;;;;10.71;40.44;101716.53;4953721;28;46589;-72
2022/03/20 10:40:16;;;;;;;;;20.50;17.50;;;;;10.76;40.41;101715.53;4947269;28;45439;-68
2022/03/20 10:42:44;;;;;;;;;25.25;24.50;;;;;10.91;40.26;101724.84;4954108;28;45529;-71
2022/03/20 10:45:10;;;;;;;;;24.00;20.75;;;;;11.04;40.23;101714.03;4949118;28;45393;-72
2022/03/20 10:47:35;;;;;;;;;26.50;23.00;;;;;11.16;40.52;101715.50;4939011;28;45977;-73
2022/03/20 10:50:08;;;;;;;;;22.75;19.00;;;;;11.26;39.18;101717.00;4952108;28;45229;-72
2022/03/20 10:52:36;;;;;;;;;28.75;24.25;;;;;11.29;38.06;101710.78;4949356;28;45494;-69
2022/03/20 10:55:07;;;;;;;;;23.00;19.00;;;;;11.37;39.23;101722.88;4941664;28;45492;-72
2022/03/20 10:57:34;;;;;;;;;19.75;17.75;;;;;11.44;37.20;101720.94;4948184;28;45479;-74
2022/03/20 11:00:11;;;;;;;;;32.25;24.75;;;;;11.47;38.87;101726.13;4943196;28;45306;-65
2022/03/20 11:02:39;;;;;;;;;29.00;26.25;;;;;11.59;39.25;101717.03;4969597;28;45517;-72
2022/03/20 11:05:05;;;;;;;;;34.50;28.75;;;;;11.69;38.47;101718.53;4972793;28;45234;-59
2022/03/20 11:07:31;;;;;;;;;20.00;18.25;;;;;11.84;38.07;101717.25;4938059;28;46189;-71
2022/03/20 11:09:57;;;;;;;;;25.75;23.00;;;;;11.98;38.16;101711.59;4937612;28;45498;-74
2022/03/20 11:12:27;;;;;;;;;21.75;19.25;;;;;12.10;37.91;101707.78;4944634;28;45381;-70
2022/03/20 11:14:54;;;;;;;;;23.00;21.00;;;;;12.20;37.37;101710.16;4946222;28;45454;-72
2022/03/20 11:17:24;;;;;;;;;23.50;21.50;;;;;12.35;37.40;101712.34;4950887;28;46116;-71
2022/03/20 11:19:52;;;;;;;;;17.75;16.75;;;;;12.46;36.39;101705.88;4937869;28;45473;-72
2022/03/20 11:22:20;;;;;;;;;19.75;17.75;;;;;12.52;35.91;101709.22;4937323;28;45375;-67
2022/03/20 11:24:47;;;;;;;;;16.75;14.75;;;;;12.59;35.94;101701.94;4939878;28;45536;-64
2022/03/20 11:27:18;;;;;;;;;18.00;17.75;;;;;12.74;35.54;101707.69;4939429;28;46269;-71
2022/03/20 11:29:48;;;;;;;;;19.75;16.00;;;;;12.79;34.65;101708.41;4942927;28;45330;-72
2022/03/20 11:32:14;;;;;;;;;18.25;17.25;;;;;12.76;34.60;101700.59;4956859;28;45436;-74
2022/03/20 11:34:39;;;;;;;;;20.50;17.00;;;;;12.81;35.02;101703.94;4947527;28;45179;-76
2022/03/20 11:37:15;;;;;;;;;18.75;18.50;;;;;12.92;34.48;101699.19;4936978;28;45185;-75
2022/03/20 11:40:09;;;;;;;;;21.25;17.25;;;;;13.01;35.05;101700.66;4936887;28;45192;-72
2022/03/20 11:42:35;;;;;;;;;23.75;19.75;;;;;13.10;35.32;101704.78;4951668;28;45363;-71
2022/03/20 11:45:00;;;;;;;;;18.50;15.25;;;;;13.22;34.91;101699.09;4949417;28;45537;-75
2022/03/20 11:47:30;;;;;;;;;23.75;23.75;;;;;13.33;34.92;101700.50;4971619;28;45975;-76
2022/03/20 11:50:24;;;;;;;;;22.00;19.75;;;;;13.43;34.02;101691.38;4956700;28;45298;-69
2022/03/20 11:53:05;;;;;;;;;37.00;28.75;;;;;13.43;32.98;101691.38;4954165;28;45363;-76
2022/03/20 11:55:42;;;;;;;;;23.50;20.75;;;;;13.34;33.91;101695.19;4957051;28;45225;-73